Time;durP1;ratioP1;P1;durP2;ratioP2;P2;SDS_P1;SDS_P2;PMS_P1;PMS_P2;Temp;Humidity;BMP_temperature;BMP_pressure;BME280_temperature;BME280_humidity;BME280_pressure;Samples;Min_cycle;Max_cycle;Signal;HPM_P1;HPM_P2
2022/08/31 00:03:54;;;;;;;8.96;7.54;;;;;;;22.39;62.76;100586.73;445167;119;922643;-76
2022/08/31 00:04:57;;;;;;;8.29;7.63;;;;;;;22.37;62.96;100586.22;445169;119;923711;-76
2022/08/31 00:06:02;;;;;;;8.66;8.06;;;;;;;22.36;63.14;100587.33;445392;119;922886;-77
2022/08/31 00:07:05;;;;;;;9.76;7.59;;;;;;;22.35;63.22;100577.34;445238;119;922630;-76
2022/08/31 00:08:08;;;;;;;10.01;7.45;;;;;;;22.36;63.27;100584.55;445406;119;922591;-76
2022/08/31 00:09:12;;;;;;;8.86;7.62;;;;;;;22.37;63.34;100582.61;445314;119;922668;-77
2022/08/31 00:10:17;;;;;;;10.18;7.54;;;;;;;22.38;63.39;100585.07;445305;119;930671;-77
2022/08/31 00:11:27;;;;;;;7.93;7.24;;;;;;;22.40;63.44;100582.00;445196;119;922646;-76
2022/08/31 00:12:26;;;;;;;9.40;7.34;;;;;;;22.42;63.51;100579.78;444679;119;922886;-77
2022/08/31 00:13:29;;;;;;;7.77;7.15;;;;;;;22.45;63.53;100571.67;445347;119;922562;-80
2022/08/31 00:14:32;;;;;;;8.90;7.66;;;;;;;22.49;63.58;100573.88;445294;119;922649;-78
2022/08/31 00:15:36;;;;;;;8.04;7.31;;;;;;;22.53;63.57;100574.94;444207;119;930527;-75
2022/08/31 00:16:41;;;;;;;8.28;7.59;;;;;;;22.56;63.51;100568.78;443321;119;923119;-77
2022/08/31 00:17:45;;;;;;;11.47;7.52;;;;;;;22.59;63.50;100571.81;443074;119;930492;-77
2022/08/31 00:18:51;;;;;;;9.87;8.08;;;;;;;22.63;63.44;100569.27;443226;119;922688;-79
2022/08/31 00:19:54;;;;;;;10.88;7.20;;;;;;;22.66;63.33;100568.69;443166;119;922624;-82
2022/08/31 00:20:57;;;;;;;7.92;7.19;;;;;;;22.69;63.27;100574.48;443331;119;922613;-77
2022/08/31 00:22:01;;;;;;;12.61;7.21;;;;;;;22.71;63.20;100572.27;443361;119;922571;-78
2022/08/31 00:23:06;;;;;;;11.19;7.75;;;;;;;22.74;63.10;100568.05;443364;119;923146;-78
2022/08/31 00:24:10;;;;;;;8.69;7.72;;;;;;;22.75;62.98;100570.55;443167;117;923055;-75
2022/08/31 00:25:13;;;;;;;9.13;7.70;;;;;;;22.77;62.91;100568.28;443396;119;922840;-76
2022/08/31 00:26:18;;;;;;;8.49;7.13;;;;;;;22.79;62.83;100568.00;443308;119;923010;-76
2022/08/31 00:27:21;;;;;;;7.88;7.19;;;;;;;22.81;62.70;100571.31;443360;119;922676;-76
2022/08/31 00:28:24;;;;;;;8.21;7.59;;;;;;;22.82;62.61;100572.98;443388;119;922570;-76
2022/08/31 00:29:27;;;;;;;10.38;7.78;;;;;;;22.83;62.55;100571.83;443331;119;922599;-78
2022/08/31 00:30:32;;;;;;;8.38;7.47;;;;;;;22.84;62.43;100567.93;442220;120;923139;-77
2022/08/31 00:31:35;;;;;;;9.62;8.19;;;;;;;22.84;62.38;100571.55;445321;119;922535;-76
2022/08/31 00:32:39;;;;;;;7.62;7.05;;;;;;;22.82;62.16;100570.20;445313;119;922780;-74
2022/08/31 00:33:43;;;;;;;8.41;7.33;;;;;;;22.80;62.21;100570.48;446362;117;922764;-77
2022/08/31 00:34:46;;;;;;;9.31;8.19;;;;;;;22.80;62.26;100566.88;452612;117;922569;-78
2022/08/31 00:35:49;;;;;;;10.14;7.62;;;;;;;22.80;62.26;100573.27;452703;117;923028;-78
2022/08/31 00:36:52;;;;;;;7.98;7.29;;;;;;;22.80;62.25;100567.70;452765;117;922689;-77
2022/08/31 00:37:56;;;;;;;14.90;8.20;;;;;;;22.81;62.01;100568.54;452674;117;922504;-75
2022/08/31 00:38:59;;;;;;;10.30;8.36;;;;;;;22.81;61.92;100574.93;449976;117;923067;-76
2022/08/31 00:40:04;;;;;;;9.06;8.19;;;;;;;22.81;61.78;100574.93;445206;119;930920;-76
2022/08/31 00:41:09;;;;;;;8.35;7.59;;;;;;;22.82;61.75;100571.00;445171;119;922682;-76
2022/08/31 00:42:12;;;;;;;11.04;8.32;;;;;;;22.82;61.67;100567.42;445045;119;930493;-76
2022/08/31 00:43:47;;;;;;;9.28;8.37;;;;;;;22.82;61.57;100564.64;445225;117;922910;-77
2022/08/31 00:44:50;;;;;;;8.68;7.98;;;;;;;22.81;61.53;100569.37;445155;119;922655;-77
2022/08/31 00:45:54;;;;;;;9.31;8.46;;;;;;;22.82;61.43;100559.88;437302;121;922734;-77
2022/08/31 00:46:57;;;;;;;8.81;8.04;;;;;;;22.82;61.35;100565.44;437820;119;922664;-78
2022/08/31 00:48:01;;;;;;;10.10;8.85;;;;;;;22.83;61.28;100560.71;445360;119;923058;-78
2022/08/31 00:49:16;;;;;;;9.84;8.99;;;;;;;22.83;61.16;100567.10;445255;117;923254;-75
2022/08/31 00:50:23;;;;;;;9.44;8.53;;;;;;;22.83;61.02;100561.54;445074;119;923043;-76
2022/08/31 00:51:30;;;;;;;9.26;8.39;;;;;;;22.83;60.91;100555.15;445122;119;923261;-77
2022/08/31 00:52:36;;;;;;;9.73;8.79;;;;;;;22.82;60.85;100554.31;445209;119;922567;-77
2022/08/31 00:53:43;;;;;;;10.78;8.48;;;;;;;22.83;60.78;100560.71;445152;119;922852;-77
2022/08/31 00:54:55;;;;;;;12.34;8.63;;;;;;;22.82;60.71;100565.44;445170;119;923082;-78
2022/08/31 00:55:59;;;;;;;10.12;8.52;;;;;;;22.81;60.64;100563.81;445141;119;922597;-77
2022/08/31 00:57:04;;;;;;;9.56;8.30;;;;;;;22.80;60.56;100556.59;445254;119;923046;-78
2022/08/31 00:58:10;;;;;;;8.44;7.77;;;;;;;22.78;60.49;100564.38;445122;119;923079;-75
2022/08/31 00:59:17;;;;;;;8.66;7.87;;;;;;;22.77;60.54;100562.72;447227;117;922635;-76
2022/08/31 01:00:25;;;;;;;9.50;8.63;;;;;;;22.74;60.61;100563.33;452797;117;922680;-77
2022/08/31 01:01:29;;;;;;;11.54;8.36;;;;;;;22.74;60.65;100559.72;452791;117;922615;-77
2022/08/31 01:02:32;;;;;;;9.16;8.23;;;;;;;22.74;60.72;100560.55;452915;117;922603;-77
2022/08/31 01:03:36;;;;;;;10.82;8.45;;;;;;;22.75;60.71;100570.55;452957;117;922784;-77
2022/08/31 01:04:39;;;;;;;8.71;8.03;;;;;;;22.74;60.78;100563.33;453005;117;923482;-77
2022/08/31 01:05:42;;;;;;;9.48;8.49;;;;;;;22.75;60.78;100570.55;452873;117;922579;-77
2022/08/31 01:06:48;;;;;;;10.25;9.06;;;;;;;22.75;60.72;100564.16;452905;117;923169;-76
2022/08/31 01:07:52;;;;;;;10.57;9.01;;;;;;;22.75;60.60;100569.72;452785;117;922752;-77
2022/08/31 01:08:57;;;;;;;9.12;8.24;;;;;;;22.72;60.51;100568.34;452949;117;922774;-77
2022/08/31 01:10:01;;;;;;;15.62;9.06;;;;;;;22.70;60.50;100570.58;452809;117;922929;-76
2022/08/31 01:11:05;;;;;;;10.66;9.52;;;;;;;22.68;60.54;100570.03;452922;117;922607;-77
2022/08/31 01:12:10;;;;;;;9.55;8.71;;;;;;;22.68;60.61;100571.98;452905;117;922639;-76
2022/08/31 01:13:14;;;;;;;9.80;8.95;;;;;;;22.67;60.51;100567.55;452768;117;923383;-77
2022/08/31 01:14:18;;;;;;;10.18;9.12;;;;;;;22.65;60.52;100575.37;452724;117;930500;-76
2022/08/31 01:15:22;;;;;;;10.66;9.58;;;;;;;22.64;60.50;100568.14;451498;117;922717;-77
2022/08/31 01:16:29;;;;;;;10.15;8.92;;;;;;;22.60;60.52;100573.48;448347;118;922898;-77
2022/08/31 01:17:34;;;;;;;10.57;9.49;;;;;;;22.59;60.58;100573.77;448094;118;922729;-77
2022/08/31 01:18:38;;;;;;;11.27;10.21;;;;;;;22.57;60.58;100578.78;448257;118;922971;-77
2022/08/31 01:20:00;;;;;;;10.98;10.07;;;;;;;22.56;60.58;100579.89;448253;118;923102;-77
2022/08/31 01:21:10;;;;;;;12.02;10.41;;;;;;;22.54;60.52;100582.98;448299;118;922617;-77
2022/08/31 01:22:41;;;;;;;10.01;9.09;;;;;;;22.50;60.46;100579.12;447087;118;923225;-76
2022/08/31 01:23:45;;;;;;;11.62;9.24;;;;;;;22.48;60.63;100584.16;448073;118;923389;-77
2022/08/31 01:24:50;;;;;;;10.77;9.89;;;;;;;22.46;60.87;100586.39;448306;118;923002;-77
2022/08/31 01:25:56;;;;;;;10.32;9.45;;;;;;;22.45;60.97;100593.06;448177;118;930456;-76
2022/08/31 01:27:03;;;;;;;11.08;8.62;;;;;;;22.45;61.06;100576.39;448239;118;922610;-77
2022/08/31 01:28:08;;;;;;;8.78;7.97;;;;;;;22.45;61.12;100576.39;448266;118;922691;-77
2022/08/31 01:29:11;;;;;;;8.77;8.08;;;;;;;22.44;61.15;100569.17;448273;118;922626;-76
2022/08/31 01:30:23;;;;;;;9.21;7.68;;;;;;;22.43;61.28;100581.44;449770;117;922933;-77
2022/08/31 01:31:36;;;;;;;9.02;8.38;;;;;;;22.42;61.32;100583.38;440313;120;922616;-77
2022/08/31 01:32:39;;;;;;;8.97;8.22;;;;;;;22.40;61.43;100584.78;447853;118;922949;-77
2022/08/31 01:33:43;;;;;;;8.84;8.04;;;;;;;22.40;61.59;100584.78;447106;118;922736;-77
2022/08/31 01:34:46;;;;;;;8.34;7.60;;;;;;;22.39;61.71;100583.95;440827;120;931000;-77
2022/08/31 01:35:49;;;;;;;11.51;8.53;;;;;;;22.40;61.79;100582.00;447962;118;922558;-77
2022/08/31 01:36:53;;;;;;;9.04;8.23;;;;;;;22.40;61.79;100585.62;448348;118;922975;-76
2022/08/31 01:37:56;;;;;;;9.01;8.24;;;;;;;22.42;61.87;100590.89;448316;118;922651;-77
2022/08/31 01:39:00;;;;;;;8.49;7.47;;;;;;;22.45;61.85;100580.00;448416;118;922687;-77
2022/08/31 01:40:03;;;;;;;8.57;7.92;;;;;;;22.46;61.92;100587.23;448458;118;922613;-77
2022/08/31 01:41:07;;;;;;;7.78;7.11;;;;;;;22.48;61.88;100578.61;448365;118;922574;-77
2022/08/31 01:42:10;;;;;;;8.61;7.69;;;;;;;22.49;61.76;100580.27;448326;118;922975;-77
2022/08/31 01:43:13;;;;;;;9.35;8.49;;;;;;;22.49;61.76;100580.27;448395;118;923244;-77
2022/08/31 01:44:20;;;;;;;8.79;8.10;;;;;;;22.51;61.80;100575.22;448402;118;922569;-77
2022/08/31 01:45:24;;;;;;;10.67;8.24;;;;;;;22.52;61.78;100581.61;440089;120;923165;-77
2022/08/31 01:46:28;;;;;;;9.05;8.16;;;;;;;22.53;61.76;100570.21;449413;118;922648;-77
2022/08/31 01:47:31;;;;;;;8.61;7.85;;;;;;;22.54;61.70;100580.21;449335;116;930718;-78
2022/08/31 01:48:35;;;;;;;9.04;8.06;;;;;;;22.55;61.62;100576.28;457418;116;922574;-77
2022/08/31 01:49:40;;;;;;;9.30;7.73;;;;;;;22.55;61.55;100576.28;456877;116;923220;-77
2022/08/31 01:50:44;;;;;;;9.59;8.70;;;;;;;22.55;61.40;100579.06;457365;116;922600;-76
2022/08/31 01:51:49;;;;;;;9.43;8.04;;;;;;;22.56;61.31;100582.67;457447;116;923033;-77
2022/08/31 01:52:52;;;;;;;9.62;8.86;;;;;;;22.54;61.24;100588.55;457211;116;923100;-77
2022/08/31 01:53:55;;;;;;;9.07;8.14;;;;;;;22.51;61.18;100588.28;457318;116;922822;-77
2022/08/31 01:54:59;;;;;;;9.79;8.43;;;;;;;22.48;61.16;100589.72;457388;116;922912;-78
2022/08/31 01:56:10;;;;;;;10.39;8.95;;;;;;;22.46;61.16;100595.56;448759;118;923057;-77
2022/08/31 01:57:14;;;;;;;11.38;8.24;;;;;;;22.44;61.24;100588.63;450081;116;923150;-76
2022/08/31 01:58:19;;;;;;;8.87;8.22;;;;;;;22.43;61.34;100587.83;454101;116;922571;-77
2022/08/31 01:59:41;;;;;;;8.39;7.65;;;;;;;22.44;61.41;100596.96;455569;116;922573;-77
2022/08/31 02:00:52;;;;;;;9.93;8.64;;;;;;;22.43;61.44;100596.16;454705;116;922924;-78
2022/08/31 02:01:56;;;;;;;9.37;8.04;;;;;;;22.42;61.45;100593.67;455776;116;922512;-77
2022/08/31 02:03:01;;;;;;;9.18;8.27;;;;;;;22.42;61.44;100593.67;455791;116;922697;-78
2022/08/31 02:04:07;;;;;;;9.00;8.28;;;;;;;22.41;61.41;100592.00;455565;116;930498;-77
2022/08/31 02:05:10;;;;;;;9.47;8.27;;;;;;;22.39;61.45;100597.84;455641;116;922624;-78
2022/08/31 02:06:14;;;;;;;9.46;8.27;;;;;;;22.38;61.45;100593.41;455760;116;922578;-77
2022/08/31 02:07:17;;;;;;;9.98;8.91;;;;;;;22.38;61.56;100593.41;455844;116;922895;-76
2022/08/31 02:08:21;;;;;;;10.25;9.39;;;;;;;22.38;61.50;100590.63;455769;116;922562;-76
2022/08/31 02:09:24;;;;;;;9.45;8.51;;;;;;;22.38;61.51;100595.38;455774;116;930502;-76
2022/08/31 02:10:28;;;;;;;9.04;8.24;;;;;;;22.39;61.57;100588.67;455764;116;922513;-77
2022/08/31 02:11:31;;;;;;;9.43;8.62;;;;;;;22.40;61.64;100593.13;455795;116;922552;-77
2022/08/31 02:12:35;;;;;;;11.96;8.94;;;;;;;22.39;61.63;100595.06;455855;116;930546;-77
2022/08/31 02:13:38;;;;;;;9.93;9.09;;;;;;;22.40;61.44;100587.56;455853;116;922565;-79
2022/08/31 02:14:41;;;;;;;9.79;8.58;;;;;;;22.40;61.47;100593.13;455864;116;922459;-78
2022/08/31 02:15:45;;;;;;;9.41;8.43;;;;;;;22.40;61.44;100590.34;456985;116;922608;-80
2022/08/31 02:16:50;;;;;;;9.02;8.28;;;;;;;22.38;61.22;100596.19;457244;116;930531;-78
2022/08/31 02:17:53;;;;;;;14.78;10.26;;;;;;;22.36;61.22;100592.05;457482;116;922648;-79
2022/08/31 02:18:57;;;;;;;10.82;9.85;;;;;;;22.31;61.19;100592.11;457304;116;922619;-78
2022/08/31 02:20:00;;;;;;;9.49;8.68;;;;;;;22.31;61.19;100592.11;457457;116;922972;-83
2022/08/31 02:21:04;;;;;;;10.05;9.12;;;;;;;22.29;61.11;100600.72;457337;116;922560;-80
2022/08/31 02:22:07;;;;;;;9.63;8.89;;;;;;;22.29;61.22;100597.11;457408;116;923057;-79
2022/08/31 02:23:10;;;;;;;12.30;9.73;;;;;;;22.29;61.28;100591.56;457493;116;922560;-80
2022/08/31 02:24:13;;;;;;;10.94;9.67;;;;;;;22.30;61.29;100596.00;457433;116;922601;-81
2022/08/31 02:25:17;;;;;;;10.88;9.65;;;;;;;22.29;61.32;100595.17;457439;116;922573;-80
2022/08/31 02:26:21;;;;;;;9.89;9.04;;;;;;;22.31;61.26;100597.66;457432;116;922689;-80
2022/08/31 02:27:25;;;;;;;9.88;9.05;;;;;;;22.29;61.21;100597.95;457411;116;922701;-82
2022/08/31 02:28:28;;;;;;;10.76;9.88;;;;;;;22.28;61.17;100598.23;457327;116;922552;-81
2022/08/31 02:29:33;;;;;;;11.88;9.76;;;;;;;22.26;61.13;100592.16;456937;116;930596;-80
2022/08/31 02:30:37;;;;;;;10.69;9.55;;;;;;;22.24;61.08;100597.16;451515;115;922753;-82
2022/08/31 02:31:41;;;;;;;10.29;9.39;;;;;;;22.23;61.20;100592.73;453685;116;923065;-79
2022/08/31 02:32:44;;;;;;;11.90;10.60;;;;;;;22.23;61.28;100584.39;457405;115;922946;-80
2022/08/31 02:33:48;;;;;;;10.30;9.24;;;;;;;22.24;61.34;100591.61;448874;118;922911;-80
2022/08/31 02:34:51;;;;;;;11.14;9.96;;;;;;;22.25;61.47;100593.27;449326;116;929008;-81
2022/08/31 02:35:55;;;;;;;10.00;9.09;;;;;;;22.26;61.50;100592.99;457410;116;922555;-76
2022/08/31 02:37:00;;;;;;;11.03;10.00;;;;;;;22.28;61.51;100596.28;457236;116;922586;-76
2022/08/31 02:38:05;;;;;;;11.37;9.21;;;;;;;22.31;61.44;100594.89;457443;116;922586;-76
2022/08/31 02:39:08;;;;;;;11.24;9.54;;;;;;;22.31;61.39;100595.72;457292;116;922554;-76
2022/08/31 02:40:14;;;;;;;10.20;9.38;;;;;;;22.32;61.37;100597.38;457258;116;923120;-76
2022/08/31 02:41:18;;;;;;;10.62;9.64;;;;;;;22.34;61.27;100599.84;457355;116;922574;-77
2022/08/31 02:42:21;;;;;;;10.28;9.46;;;;;;;22.35;61.16;100595.95;457370;116;930634;-76
2022/08/31 02:43:25;;;;;;;10.65;9.76;;;;;;;22.34;61.09;100599.84;457344;116;922659;-76
2022/08/31 02:44:29;;;;;;;10.24;9.38;;;;;;;22.33;61.02;100601.79;448987;118;922693;-77
2022/08/31 02:45:32;;;;;;;11.02;9.72;;;;;;;22.31;60.98;100595.72;449341;116;922917;-76
2022/08/31 02:46:37;;;;;;;10.64;9.48;;;;;;;22.29;60.84;100600.72;456693;116;922622;-76
2022/08/31 02:47:59;;;;;;;10.06;9.22;;;;;;;22.26;60.75;100600.49;457276;116;922650;-76
2022/08/31 02:49:10;;;;;;;11.42;10.38;;;;;;;22.21;60.64;100604.15;456607;116;922662;-76
2022/08/31 02:50:14;;;;;;;10.39;9.55;;;;;;;22.18;60.59;100610.27;457342;116;922843;-76
2022/08/31 02:51:17;;;;;;;11.07;10.13;;;;;;;22.16;60.56;100600.59;457477;116;922633;-76
2022/08/31 02:52:22;;;;;;;9.67;8.75;;;;;;;22.14;60.73;100605.59;457279;116;922567;-76
2022/08/31 02:53:25;;;;;;;10.52;9.22;;;;;;;22.13;60.91;100601.98;448942;118;930636;-76
2022/08/31 02:54:29;;;;;;;11.32;10.16;;;;;;;22.15;61.09;100598.92;449496;116;923116;-77
2022/08/31 02:55:32;;;;;;;11.32;9.53;;;;;;;22.16;61.13;100600.59;457424;116;922549;-77
2022/08/31 02:56:36;;;;;;;12.13;10.45;;;;;;;22.18;61.20;100603.88;457368;116;922627;-77
2022/08/31 02:57:39;;;;;;;10.34;9.28;;;;;;;22.19;61.17;100600.83;457330;116;930297;-77
2022/08/31 02:58:45;;;;;;;10.92;9.83;;;;;;;22.20;61.12;100602.48;456203;116;922878;-77
2022/08/31 02:59:49;;;;;;;11.66;10.53;;;;;;;22.20;61.15;100616.37;455735;116;922573;-76
2022/08/31 03:00:53;;;;;;;11.41;9.81;;;;;;;22.21;61.04;100606.93;446332;118;923262;-76
2022/08/31 03:01:56;;;;;;;11.12;10.09;;;;;;;22.22;60.90;100610.53;446803;116;923110;-78
2022/08/31 03:03:00;;;;;;;11.13;9.89;;;;;;;22.20;60.57;100610.81;455555;116;922618;-77
2022/08/31 03:04:04;;;;;;;10.56;9.76;;;;;;;22.18;60.45;100614.99;455532;116;922606;-77
2022/08/31 03:05:07;;;;;;;12.07;9.66;;;;;;;22.17;60.54;100613.33;455507;116;930395;-77
2022/08/31 03:06:11;;;;;;;10.67;9.63;;;;;;;22.16;60.59;100617.25;455487;116;922887;-77
2022/08/31 03:07:15;;;;;;;11.05;10.10;;;;;;;22.16;60.57;100614.48;455671;116;922596;-77
2022/08/31 03:08:20;;;;;;;10.43;9.44;;;;;;;22.16;60.64;100622.80;455415;114;923228;-77
2022/08/31 03:09:24;;;;;;;10.85;9.91;;;;;;;22.17;60.70;100621.66;455572;116;922576;-77
2022/08/31 03:10:27;;;;;;;10.85;9.90;;;;;;;22.17;60.75;100614.16;455662;116;923050;-77
2022/08/31 03:11:31;;;;;;;10.49;9.34;;;;;;;22.20;60.80;100612.77;455649;116;922473;-77
2022/08/31 03:12:35;;;;;;;10.13;9.23;;;;;;;22.22;60.82;100616.89;446424;118;922600;-76
2022/08/31 03:13:39;;;;;;;13.02;9.79;;;;;;;22.23;60.85;100621.33;446763;116;922733;-76
2022/08/31 03:14:42;;;;;;;10.64;9.60;;;;;;;22.25;60.75;100616.33;455498;116;922589;-76
2022/08/31 03:15:46;;;;;;;13.16;10.82;;;;;;;22.26;60.86;100620.77;456870;116;927953;-76
2022/08/31 03:16:51;;;;;;;10.11;9.19;;;;;;;22.26;60.90;100619.94;457154;116;923389;-77
2022/08/31 03:17:55;;;;;;;11.35;9.88;;;;;;;22.27;60.85;100618.82;457284;115;922600;-77
2022/08/31 03:18:59;;;;;;;17.06;9.91;;;;;;;22.27;60.82;100624.38;457230;114;922868;-77
2022/08/31 03:20:05;;;;;;;11.11;9.60;;;;;;;22.26;60.89;100628.27;457270;116;930299;-76
2022/08/31 03:21:08;;;;;;;12.63;10.71;;;;;;;22.24;60.91;100628.55;457170;116;922608;-76
2022/08/31 03:22:13;;;;;;;10.53;9.50;;;;;;;22.23;60.95;100631.61;451997;117;922676;-77
2022/08/31 03:23:17;;;;;;;10.58;9.62;;;;;;;22.21;61.01;100629.14;452295;115;922657;-77
2022/08/31 03:24:22;;;;;;;10.52;9.61;;;;;;;22.20;61.04;100637.77;457148;115;922803;-77
2022/08/31 03:25:27;;;;;;;11.73;9.64;;;;;;;22.18;61.13;100626.94;456879;115;922715;-77
2022/08/31 03:26:31;;;;;;;10.63;9.65;;;;;;;22.18;61.24;100626.10;457238;115;923109;-77
2022/08/31 03:27:35;;;;;;;14.49;10.09;;;;;;;22.18;61.41;100621.38;457356;115;922608;-77
2022/08/31 03:28:39;;;;;;;10.01;9.09;;;;;;;22.20;61.51;100626.65;457176;114;922600;-77
2022/08/31 03:29:44;;;;;;;10.52;9.62;;;;;;;22.22;61.60;100621.65;455600;115;922758;-77
2022/08/31 03:30:52;;;;;;;11.36;9.78;;;;;;;22.26;61.65;100619.94;458684;115;922595;-77
2022/08/31 03:31:56;;;;;;;10.26;9.41;;;;;;;22.29;61.60;100624.89;457265;115;922512;-77
2022/08/31 03:33:00;;;;;;;10.98;10.01;;;;;;;22.31;61.64;100622.66;457253;116;922872;-77
2022/08/31 03:34:06;;;;;;;11.31;9.54;;;;;;;22.34;61.60;100622.06;461945;113;922883;-77
2022/08/31 03:35:09;;;;;;;12.21;9.75;;;;;;;22.36;61.52;100623.45;457238;115;922695;-77
2022/08/31 03:36:14;;;;;;;10.41;9.51;;;;;;;22.39;61.48;100616.46;449650;116;923163;-77
2022/08/31 03:37:20;;;;;;;11.20;10.18;;;;;;;22.41;61.30;100620.62;457621;113;930693;-77
2022/08/31 03:38:23;;;;;;;10.63;9.62;;;;;;;22.43;61.36;100618.39;466230;113;922593;-76
2022/08/31 03:39:26;;;;;;;11.01;10.00;;;;;;;22.46;61.45;100617.79;466432;113;922535;-77
2022/08/31 03:40:31;;;;;;;12.69;9.81;;;;;;;22.50;61.39;100619.97;466334;113;922741;-77
2022/08/31 03:41:34;;;;;;;10.67;9.72;;;;;;;22.53;61.33;100627.73;466360;113;930559;-78
2022/08/31 03:42:39;;;;;;;10.91;9.90;;;;;;;22.55;61.11;100622.73;466428;113;922612;-77
2022/08/31 03:43:43;;;;;;;11.65;10.40;;;;;;;22.58;60.82;100625.73;457104;116;930847;-77
2022/08/31 03:44:47;;;;;;;11.31;9.77;;;;;;;22.60;60.66;100620.72;457610;113;923271;-77
2022/08/31 03:45:54;;;;;;;10.60;9.59;;;;;;;22.64;60.63;100626.52;465834;113;930464;-77
2022/08/31 03:46:58;;;;;;;11.55;9.88;;;;;;;22.65;60.48;100623.45;457134;116;923132;-77
2022/08/31 03:48:05;;;;;;;11.44;10.24;;;;;;;22.68;60.36;100624.80;457579;113;929262;-77
2022/08/31 03:49:11;;;;;;;11.48;10.38;;;;;;;22.69;60.25;100623.68;465543;113;930516;-77
2022/08/31 03:50:16;;;;;;;11.79;10.71;;;;;;;22.72;60.13;100614.77;463283;113;922724;-78
2022/08/31 03:51:21;;;;;;;12.08;11.01;;;;;;;22.74;59.97;100618.09;464408;113;922564;-77
2022/08/31 03:52:24;;;;;;;11.12;10.23;;;;;;;22.76;59.87;100613.91;466467;113;922816;-77
2022/08/31 03:53:34;;;;;;;12.18;11.03;;;;;;;22.78;59.80;100628.33;464919;113;922814;-77
2022/08/31 03:54:37;;;;;;;11.73;10.64;;;;;;;22.80;59.71;100617.75;466316;113;922492;-77
2022/08/31 03:55:42;;;;;;;12.33;11.13;;;;;;;22.83;59.62;100619.09;466478;113;922618;-77
2022/08/31 03:56:45;;;;;;;12.04;10.95;;;;;;;22.84;59.48;100609.63;466261;113;922908;-77
2022/08/31 03:57:49;;;;;;;12.03;10.96;;;;;;;22.85;59.41;100612.12;466367;113;922454;-77
2022/08/31 03:58:53;;;;;;;11.66;10.55;;;;;;;22.88;59.22;100610.69;451957;116;930425;-76
2022/08/31 04:00:08;;;;;;;11.40;10.41;;;;;;;22.92;59.12;100605.39;450083;116;923224;-76
2022/08/31 04:01:17;;;;;;;11.48;10.37;;;;;;;22.93;58.94;100607.05;453922;116;922705;-76
2022/08/31 04:02:39;;;;;;;11.16;10.17;;;;;;;22.96;58.81;100610.05;454018;116;922658;-77
2022/08/31 04:03:59;;;;;;;10.98;9.67;;;;;;;22.98;58.65;100609.77;453712;116;922620;-77
2022/08/31 04:05:20;;;;;;;10.51;9.61;;;;;;;23.02;58.59;100610.83;453980;116;931017;-77
2022/08/31 04:06:46;;;;;;;10.31;9.42;;;;;;;23.03;58.58;100612.48;454052;116;922634;-77
2022/08/31 04:08:07;;;;;;;10.99;9.96;;;;;;;23.05;58.42;100613.00;454045;116;922620;-77
2022/08/31 04:09:24;;;;;;;9.93;9.01;;;;;;;23.06;58.26;100609.09;454028;116;922562;-77
2022/08/31 04:10:32;;;;;;;10.77;9.83;;;;;;;23.08;58.17;100617.98;438608;121;922894;-76
2022/08/31 04:11:54;;;;;;;14.20;11.27;;;;;;;23.09;57.91;100614.91;452936;116;922638;-77
2022/08/31 04:13:15;;;;;;;12.79;10.04;;;;;;;23.10;57.95;100613.77;454029;116;922573;-77
2022/08/31 04:14:37;;;;;;;12.14;10.68;;;;;;;23.11;57.92;100614.59;454044;116;922596;-77
2022/08/31 04:15:59;;;;;;;11.33;10.22;;;;;;;23.13;57.85;100615.14;449836;116;922672;-77
2022/08/31 04:17:04;;;;;;;11.88;10.20;;;;;;;23.14;57.92;100606.50;431419;118;923129;-76
2022/08/31 04:18:09;;;;;;;14.19;10.73;;;;;;;23.16;57.79;100612.58;449203;118;923016;-76
2022/08/31 04:19:18;;;;;;;11.45;10.52;;;;;;;23.18;57.79;100606.72;449694;118;922781;-77
2022/08/31 04:20:24;;;;;;;9.99;9.19;;;;;;;23.20;57.88;100604.48;448921;118;922592;-77
2022/08/31 04:21:30;;;;;;;10.32;9.33;;;;;;;23.22;57.75;100600.26;449324;118;922573;-77
2022/08/31 04:22:33;;;;;;;10.96;9.97;;;;;;;23.24;57.70;100603.58;449903;118;922567;-78
2022/08/31 04:23:44;;;;;;;11.76;10.73;;;;;;;23.27;57.66;100604.92;436538;116;922804;-77
2022/08/31 04:24:47;;;;;;;12.56;11.32;;;;;;;23.30;57.57;100596.00;454202;116;922670;-78
2022/08/31 04:25:50;;;;;;;14.21;11.71;;;;;;;23.32;57.59;100595.70;454093;116;922811;-76
2022/08/31 04:26:54;;;;;;;12.61;11.36;;;;;;;23.35;57.59;100597.88;454173;116;922680;-76
2022/08/31 04:27:57;;;;;;;14.01;12.78;;;;;;;23.36;57.54;100599.54;454149;116;922947;-77
2022/08/31 04:29:03;;;;;;;14.45;13.20;;;;;;;23.37;57.48;100599.25;453978;116;922949;-77
2022/08/31 04:30:07;;;;;;;14.30;13.08;;;;;;;23.39;57.43;100593.36;454028;116;922563;-77
2022/08/31 04:31:10;;;;;;;13.85;12.63;;;;;;;23.41;57.31;100602.25;452866;116;930527;-77
2022/08/31 04:32:15;;;;;;;15.69;12.53;;;;;;;23.41;57.31;100605.86;453924;116;926169;-78
2022/08/31 04:33:19;;;;;;;13.76;12.61;;;;;;;23.43;57.27;100603.59;445865;119;922603;-78
2022/08/31 04:34:22;;;;;;;15.99;14.26;;;;;;;23.46;57.21;100604.98;446134;116;922632;-78
2022/08/31 04:35:25;;;;;;;13.91;12.74;;;;;;;23.46;57.08;100600.25;454067;116;930354;-76
2022/08/31 04:36:30;;;;;;;13.63;12.25;;;;;;;23.47;57.10;100601.09;454089;116;922595;-76
2022/08/31 04:37:34;;;;;;;14.32;12.97;;;;;;;23.49;57.14;100599.64;453995;116;922891;-77
2022/08/31 04:38:39;;;;;;;14.76;13.49;;;;;;;23.50;57.14;100597.69;454093;116;922944;-77
2022/08/31 04:39:44;;;;;;;14.78;13.48;;;;;;;23.52;57.03;100596.27;454053;116;922971;-77
2022/08/31 04:40:49;;;;;;;15.49;14.13;;;;;;;23.53;56.94;100591.54;453399;116;922756;-76
2022/08/31 04:41:54;;;;;;;14.80;13.29;;;;;;;23.56;56.88;100596.48;454008;116;922588;-77
2022/08/31 04:42:58;;;;;;;14.23;13.01;;;;;;;23.58;56.73;100599.81;454128;116;922663;-77
2022/08/31 04:44:03;;;;;;;15.02;13.40;;;;;;;23.59;56.71;100596.73;454108;116;922667;-76
2022/08/31 04:45:07;;;;;;;14.56;13.22;;;;;;;23.62;56.67;100603.64;454068;116;922630;-76
2022/08/31 04:46:11;;;;;;;15.43;13.45;;;;;;;23.64;56.60;100607.80;454191;116;922664;-77
2022/08/31 04:47:14;;;;;;;14.19;13.02;;;;;;;23.69;56.38;100607.72;454163;116;922688;-78
2022/08/31 04:48:17;;;;;;;13.99;12.73;;;;;;;23.69;56.38;100607.72;454144;116;930418;-77
2022/08/31 04:49:20;;;;;;;13.32;12.24;;;;;;;23.70;56.20;100616.90;454192;116;922869;-77
2022/08/31 04:50:24;;;;;;;14.85;13.28;;;;;;;23.71;56.12;100610.17;454126;116;922942;-77
2022/08/31 04:51:34;;;;;;;14.12;12.50;;;;;;;23.72;56.05;100611.84;452600;116;922542;-76
2022/08/31 04:52:38;;;;;;;13.72;12.41;;;;;;;23.74;55.95;100617.11;453992;116;922818;-76
2022/08/31 04:53:43;;;;;;;14.95;13.08;;;;;;;23.75;55.99;100610.42;453970;116;922936;-77
2022/08/31 04:54:46;;;;;;;13.45;12.32;;;;;;;23.76;55.96;100615.70;454091;116;930448;-77
2022/08/31 04:55:50;;;;;;;14.13;12.37;;;;;;;23.77;55.90;100611.76;454131;116;922598;-77
2022/08/31 04:56:54;;;;;;;13.55;12.39;;;;;;;23.79;55.72;100605.89;454043;116;930325;-77
2022/08/31 04:57:59;;;;;;;12.96;11.88;;;;;;;23.83;55.73;100615.29;453040;116;930391;-78
2022/08/31 04:59:05;;;;;;;13.96;12.06;;;;;;;23.85;55.67;100602.73;451480;116;922620;-78
2022/08/31 05:00:11;;;;;;;12.97;11.69;;;;;;;23.88;55.53;100607.69;451026;117;923278;-76
2022/08/31 05:01:32;;;;;;;14.08;12.63;;;;;;;23.92;55.59;100602.36;430916;123;922832;-77